Time;durP1;ratioP1;P1;durP2;ratioP2;P2;SDS_P1;SDS_P2;PMS_P1;PMS_P2;Temp;Humidity;BMP_temperature;BMP_pressure;BME280_temperature;BME280_humidity;BME280_pressure;Samples;Min_cycle;Max_cycle;Signal;HPM_P1;HPM_P2
2021/01/20 00:00:52;;;;;;;1.03;0.87;;;;;;;4.16;100.00;97686.34;5043372;28;20272;-77
2021/01/20 00:03:19;;;;;;;1.07;0.60;;;;;;;4.22;100.00;97688.31;5052097;28;20224;-80
2021/01/20 00:05:46;;;;;;;1.73;0.80;;;;;;;4.22;100.00;97685.66;5053161;28;20655;-79
2021/01/20 00:08:13;;;;;;;0.97;0.70;;;;;;;4.24;100.00;97673.13;5054380;28;20216;-78
2021/01/20 00:10:40;;;;;;;2.20;0.70;;;;;;;4.24;100.00;97670.50;5054950;28;20233;-79
2021/01/20 00:13:07;;;;;;;1.53;0.80;;;;;;;4.34;100.00;97668.47;5047723;28;20203;-80
2021/01/20 00:15:34;;;;;;;2.07;1.10;;;;;;;4.39;100.00;97660.03;5055149;28;20733;-79
2021/01/20 00:18:01;;;;;;;1.60;0.80;;;;;;;4.44;100.00;97657.69;5056750;28;20283;-79
2021/01/20 00:20:28;;;;;;;1.10;0.70;;;;;;;4.45;100.00;97648.78;5053998;28;20217;-78
2021/01/20 00:22:56;;;;;;;1.70;0.70;;;;;;;4.50;100.00;97654.38;5053203;28;20712;-76
2021/01/20 00:25:23;;;;;;;1.53;0.97;;;;;;;4.59;100.00;97650.69;5043670;28;20290;-76
2021/01/20 00:27:50;;;;;;;1.80;0.90;;;;;;;4.49;100.00;97644.78;5052103;28;20258;-76
2021/01/20 00:30:18;;;;;;;1.73;0.83;;;;;;;4.47;100.00;97638.88;5050105;28;20225;-76
2021/01/20 00:32:45;;;;;;;1.70;1.07;;;;;;;4.42;100.00;97639.38;5052015;28;20206;-77
2021/01/20 00:35:12;;;;;;;1.43;0.90;;;;;;;4.46;100.00;97638.03;5051658;28;20198;-77
2021/01/20 00:37:39;;;;;;;1.73;0.90;;;;;;;4.45;100.00;97639.03;5047457;28;20212;-77
2021/01/20 00:40:08;;;;;;;2.87;0.97;;;;;;;4.51;100.00;97645.44;5050774;28;20227;-78
2021/01/20 00:42:35;;;;;;;1.27;0.80;;;;;;;4.48;100.00;97638.69;5047839;28;20616;-76
2021/01/20 00:45:03;;;;;;;2.90;1.00;;;;;;;4.53;100.00;97641.63;5045674;28;20210;-77
2021/01/20 00:47:29;;;;;;;1.03;0.87;;;;;;;4.64;100.00;97645.72;5046812;28;20198;-77
2021/01/20 00:49:56;;;;;;;1.90;0.90;;;;;;;4.60;100.00;97639.13;5049550;28;20256;-77
2021/01/20 00:52:23;;;;;;;1.30;0.83;;;;;;;4.60;100.00;97634.69;5049467;28;20227;-77
2021/01/20 00:54:50;;;;;;;1.60;0.77;;;;;;;4.60;100.00;97639.13;5051983;28;20208;-77
2021/01/20 00:57:17;;;;;;;1.70;0.93;;;;;;;4.56;100.00;97628.09;5048933;28;20667;-77
2021/01/20 00:59:44;;;;;;;1.33;1.00;;;;;;;4.49;100.00;97632.44;5047928;28;20766;-76
2021/01/20 01:02:11;;;;;;;1.47;0.80;;;;;;;4.42;100.00;97625.34;5049002;28;20206;-77
2021/01/20 01:04:38;;;;;;;1.63;0.80;;;;;;;4.45;100.00;97632.91;5056921;28;20206;-77
2021/01/20 01:07:04;;;;;;;1.07;0.80;;;;;;;4.37;100.00;97625.06;5059691;28;20216;-78
2021/01/20 01:09:31;;;;;;;1.50;0.80;;;;;;;4.34;100.00;97625.38;5054370;28;20322;-77
2021/01/20 01:11:58;;;;;;;1.27;0.77;;;;;;;4.27;100.00;97619.16;5064768;28;20210;-77
2021/01/20 01:14:25;;;;;;;3.10;0.77;;;;;;;4.14;100.00;97619.69;5064180;28;20237;-77
2021/01/20 01:16:52;;;;;;;1.77;1.00;;;;;;;4.18;100.00;97621.00;5048128;28;20839;-77
2021/01/20 01:19:19;;;;;;;1.10;0.80;;;;;;;4.15;100.00;97617.84;5052899;28;20218;-77
2021/01/20 01:21:46;;;;;;;1.37;0.80;;;;;;;4.06;100.00;97613.63;5057430;28;20755;-77
2021/01/20 01:24:13;;;;;;;0.90;0.77;;;;;;;4.11;100.00;97613.94;5053490;28;20221;-77
2021/01/20 01:26:39;;;;;;;3.10;1.00;;;;;;;4.09;100.00;97614.09;5058274;28;20229;-76
2021/01/20 01:29:06;;;;;;;1.20;0.70;;;;;;;4.10;100.00;97604.34;5056188;28;20234;-77
2021/01/20 01:31:33;;;;;;;1.53;0.73;;;;;;;4.08;100.00;97601.06;5054327;28;20582;-77
2021/01/20 01:34:01;;;;;;;1.60;0.63;;;;;;;4.05;100.00;97598.75;5053155;28;20231;-77
2021/01/20 01:36:27;;;;;;;1.10;0.83;;;;;;;4.06;100.00;97603.88;5050816;28;20213;-76
2021/01/20 01:38:54;;;;;;;1.67;1.00;;;;;;;4.06;100.00;97601.22;5053064;28;20211;-77
2021/01/20 01:41:21;;;;;;;0.70;0.60;;;;;;;4.04;100.00;97605.03;5053911;28;20288;-78
2021/01/20 01:43:48;;;;;;;1.77;0.90;;;;;;;4.15;100.00;97599.38;5054004;28;20251;-77
2021/01/20 01:46:14;;;;;;;1.80;0.90;;;;;;;4.16;100.00;97593.91;5054624;28;20575;-78
2021/01/20 01:48:41;;;;;;;2.30;0.80;;;;;;;4.15;100.00;97596.72;5056966;28;20230;-79
2021/01/20 01:51:09;;;;;;;0.93;0.70;;;;;;;4.20;100.00;97594.41;5056691;28;20225;-78
2021/01/20 01:53:36;;;;;;;1.33;0.90;;;;;;;4.23;100.00;97597.53;5057199;28;20201;-78
2021/01/20 01:56:03;;;;;;;1.70;0.80;;;;;;;4.26;100.00;97593.75;5063233;28;20277;-77
2021/01/20 01:58:30;;;;;;;1.17;0.87;;;;;;;4.33;100.00;97592.03;5065582;28;20202;-76
2021/01/20 02:00:57;;;;;;;2.17;0.73;;;;;;;4.25;100.00;97586.78;5068828;28;20301;-76
2021/01/20 02:03:24;;;;;;;2.60;1.10;;;;;;;4.25;100.00;97587.63;5073430;28;20244;-77
2021/01/20 02:05:50;;;;;;;2.03;0.80;;;;;;;4.27;100.00;97582.97;5072814;28;20270;-77
2021/01/20 02:08:18;;;;;;;1.80;0.70;;;;;;;4.33;100.00;97578.84;5069073;28;20229;-78
2021/01/20 02:10:45;;;;;;;3.10;0.80;;;;;;;4.42;100.00;97568.03;5067998;28;20246;-77
2021/01/20 02:13:25;;;;;;;1.23;0.77;;;;;;;4.45;100.00;97569.53;5066748;28;20610;-76
2021/01/20 02:15:58;;;;;;;0.60;0.57;;;;;;;4.45;100.00;97569.53;5056357;28;20230;-77
2021/01/20 02:18:29;;;;;;;2.90;1.00;;;;;;;4.58;100.00;97570.59;5053026;28;20213;-77
2021/01/20 02:21:22;;;;;;;1.63;0.77;;;;;;;4.66;100.00;97565.28;5054400;28;20258;-77
2021/01/20 02:23:50;;;;;;;2.27;0.83;;;;;;;4.85;100.00;97563.97;5045794;28;20209;-76
2021/01/20 02:26:38;;;;;;;1.13;0.80;;;;;;;5.00;100.00;97567.50;5058888;28;20198;-77
2021/01/20 02:29:26;;;;;;;1.47;0.90;;;;;;;5.08;100.00;97568.25;5066582;28;20229;-77
2021/01/20 02:31:54;;;;;;;1.13;0.77;;;;;;;5.16;100.00;97557.63;5055607;28;20207;-78
2021/01/20 02:34:22;;;;;;;0.83;0.50;;;;;;;5.22;100.00;97564.84;5050217;28;20595;-78
2021/01/20 02:36:50;;;;;;;0.90;0.70;;;;;;;5.36;100.00;97564.06;5054328;28;20672;-77
2021/01/20 02:39:18;;;;;;;2.47;0.73;;;;;;;5.49;100.00;97564.25;5048661;28;20726;-78
2021/01/20 02:41:45;;;;;;;1.70;0.50;;;;;;;5.56;100.00;97564.38;5059922;28;20224;-78
2021/01/20 02:44:12;;;;;;;0.93;0.70;;;;;;;5.63;100.00;97573.25;5052475;28;20203;-77
2021/01/20 02:46:40;;;;;;;1.70;0.87;;;;;;;5.66;100.00;97573.72;5052843;28;20215;-77
2021/01/20 02:49:07;;;;;;;2.00;0.70;;;;;;;5.74;100.00;97562.22;5044830;28;20231;-76
2021/01/20 02:51:46;;;;;;;1.23;0.70;;;;;;;5.73;100.00;97558.72;5044272;28;20235;-76
2021/01/20 02:54:15;;;;;;;0.83;0.60;;;;;;;5.66;100.00;97557.00;5045408;28;20203;-78
2021/01/20 02:56:47;;;;;;;1.50;0.70;;;;;;;5.59;100.00;97556.09;5046321;28;20212;-77
2021/01/20 02:59:14;;;;;;;1.07;0.80;;;;;;;5.53;100.00;97560.25;5044127;28;20234;-77
2021/01/20 03:01:44;;;;;;;1.13;0.70;;;;;;;5.53;100.00;97560.25;5050714;28;20261;-77
2021/01/20 03:04:13;;;;;;;1.27;0.70;;;;;;;5.55;100.00;97554.78;5053300;28;20673;-78
2021/01/20 03:06:41;;;;;;;1.37;0.93;;;;;;;5.55;100.00;97549.50;5048841;28;20211;-78
2021/01/20 03:09:08;;;;;;;2.13;0.60;;;;;;;5.45;100.00;97544.47;5047186;28;20321;-78
2021/01/20 03:11:47;;;;;;;1.33;0.83;;;;;;;5.43;100.00;97550.97;5052010;28;20209;-77
2021/01/20 03:14:14;;;;;;;1.07;0.80;;;;;;;5.36;100.00;97542.91;5043542;28;20200;-78
2021/01/20 03:16:40;;;;;;;0.97;0.87;;;;;;;5.35;100.00;97543.09;5047781;28;20211;-77
2021/01/20 03:19:07;;;;;;;1.80;0.80;;;;;;;5.26;100.00;97544.16;5046422;28;20224;-77
2021/01/20 03:21:35;;;;;;;0.80;0.73;;;;;;;5.34;100.00;97538.78;5048329;28;20240;-78
2021/01/20 03:24:02;;;;;;;1.20;0.70;;;;;;;5.33;100.00;97537.16;5050389;28;20599;-76
2021/01/20 03:26:28;;;;;;;1.60;0.90;;;;;;;5.20;100.00;97534.28;5047306;28;20711;-77
2021/01/20 03:28:55;;;;;;;2.30;0.80;;;;;;;5.22;100.00;97535.75;5052372;28;20238;-77
2021/01/20 03:31:22;;;;;;;1.27;0.70;;;;;;;5.07;100.00;97532.25;5047880;28;20215;-77
2021/01/20 03:33:49;;;;;;;1.20;0.80;;;;;;;5.03;100.00;97541.53;5052637;28;20207;-77
2021/01/20 03:36:16;;;;;;;1.50;0.90;;;;;;;5.00;100.00;97541.06;5049709;28;20204;-77
2021/01/20 03:38:43;;;;;;;1.13;0.90;;;;;;;4.88;100.00;97537.22;5049819;28;20220;-77
2021/01/20 03:41:10;;;;;;;1.50;1.00;;;;;;;4.93;100.00;97543.59;5053658;28;20723;-78
2021/01/20 03:43:37;;;;;;;1.37;0.70;;;;;;;4.90;100.00;97543.13;5050774;28;20277;-77
2021/01/20 03:46:04;;;;;;;1.60;0.80;;;;;;;4.95;100.00;97546.06;5046345;28;20201;-77
2021/01/20 03:48:31;;;;;;;1.60;0.90;;;;;;;4.91;100.00;97544.75;5052240;28;20211;-78
2021/01/20 03:50:58;;;;;;;1.10;0.90;;;;;;;5.02;100.00;97537.25;5051072;28;20550;-79
2021/01/20 03:53:25;;;;;;;0.80;0.60;;;;;;;4.97;100.00;97536.97;5051240;28;20202;-77
2021/01/20 03:55:52;;;;;;;1.50;0.90;;;;;;;4.94;100.00;97531.22;5044222;28;20214;-78
2021/01/20 03:58:19;;;;;;;2.60;1.03;;;;;;;4.86;100.00;97529.44;5043043;28;20675;-77
2021/01/20 04:00:46;;;;;;;1.83;1.00;;;;;;;4.81;100.00;97517.75;5046188;28;20303;-79
2021/01/20 04:03:13;;;;;;;2.13;1.10;;;;;;;4.70;100.00;97523.44;5047322;28;20206;-78
2021/01/20 04:05:39;;;;;;;1.93;0.90;;;;;;;4.66;100.00;97520.34;5049136;28;20213;-77
2021/01/20 04:08:06;;;;;;;2.53;0.90;;;;;;;4.60;100.00;97517.56;5050725;28;20215;-77
2021/01/20 04:10:33;;;;;;;1.83;0.90;;;;;;;4.63;100.00;97517.25;5047449;28;20269;-79
2021/01/20 04:13:01;;;;;;;1.97;1.00;;;;;;;4.62;100.00;97505.03;5046747;28;20212;-77
2021/01/20 04:15:27;;;;;;;1.57;0.70;;;;;;;4.63;100.00;97509.31;5048270;28;20203;-77
2021/01/20 04:17:54;;;;;;;1.20;0.97;;;;;;;4.61;100.00;97512.13;5048939;28;20206;-77
2021/01/20 04:20:21;;;;;;;1.87;1.00;;;;;;;4.67;100.00;97502.69;5050956;28;20227;-77
2021/01/20 04:22:48;;;;;;;1.23;0.90;;;;;;;4.67;100.00;97502.69;5047196;28;20257;-77
2021/01/20 04:25:15;;;;;;;4.33;0.90;;;;;;;4.61;100.00;97498.91;5049954;28;20219;-79
2021/01/20 04:27:41;;;;;;;1.10;0.80;;;;;;;4.83;100.00;97490.13;5046142;28;20213;-78
2021/01/20 04:30:10;;;;;;;0.77;0.77;;;;;;;5.00;100.00;97491.66;5048828;28;20227;-76
2021/01/20 04:32:37;;;;;;;1.13;0.90;;;;;;;4.95;100.00;97488.75;5042600;28;20223;-78
2021/01/20 04:35:05;;;;;;;1.60;0.77;;;;;;;4.93;100.00;97487.28;5044256;28;20297;-78
2021/01/20 04:37:32;;;;;;;1.53;1.00;;;;;;;4.95;100.00;97480.81;5046358;28;20263;-78
2021/01/20 04:39:59;;;;;;;1.27;1.00;;;;;;;4.95;100.00;97482.63;5050768;28;20222;-77
2021/01/20 04:42:25;;;;;;;2.07;0.90;;;;;;;4.92;100.00;97480.34;5048652;28;20202;-79
2021/01/20 04:44:52;;;;;;;0.93;0.57;;;;;;;5.02;100.00;97481.72;5049819;28;20225;-79
2021/01/20 04:47:21;;;;;;;0.80;0.80;;;;;;;5.03;100.00;97475.44;5049367;28;20658;-78
2021/01/20 04:49:51;;;;;;;1.07;0.80;;;;;;;4.98;100.00;97479.63;5048419;28;20867;-78
2021/01/20 04:52:20;;;;;;;0.90;0.73;;;;;;;4.95;100.00;97472.88;5045047;28;20253;-77
2021/01/20 04:54:47;;;;;;;0.73;0.70;;;;;;;4.90;100.00;97480.53;5053868;28;20207;-78
2021/01/20 04:57:14;;;;;;;2.47;1.03;;;;;;;5.19;100.00;97482.41;5044912;28;20210;-77
2021/01/20 04:59:42;;;;;;;2.03;0.50;;;;;;;5.36;100.00;97484.69;5045052;28;20237;-77
2021/01/20 05:02:10;;;;;;;0.80;0.60;;;;;;;5.38;100.00;97474.75;5048764;28;20207;-78
2021/01/20 05:04:39;;;;;;;1.17;0.90;;;;;;;5.51;100.00;97479.41;5050917;28;20221;-78
2021/01/20 05:07:07;;;;;;;0.83;0.70;;;;;;;5.57;100.00;97481.31;5045959;28;20748;-78
2021/01/20 05:09:34;;;;;;;0.93;0.73;;;;;;;5.67;100.00;97482.69;5050631;28;20716;-77
2021/01/20 05:12:01;;;;;;;0.50;0.50;;;;;;;5.78;100.00;97479.59;5048355;28;20269;-78
2021/01/20 05:14:28;;;;;;;0.97;0.80;;;;;;;5.91;100.00;97469.22;5050135;28;20214;-77
2021/01/20 05:17:07;;;;;;;1.30;0.77;;;;;;;5.97;99.22;97465.81;5050236;28;20315;-79
2021/01/20 05:19:37;;;;;;;1.50;0.93;;;;;;;5.97;99.23;97468.47;5048817;28;20238;-78
2021/01/20 05:22:05;;;;;;;1.20;0.53;;;;;;;6.06;97.67;97467.38;5052532;28;20212;-76
2021/01/20 05:24:32;;;;;;;1.00;0.90;;;;;;;6.20;94.96;97470.97;5054456;28;20203;-77
2021/01/20 05:26:59;;;;;;;1.20;0.70;;;;;;;6.12;95.77;97474.56;5050152;28;20407;-79
2021/01/20 05:29:26;;;;;;;0.83;0.77;;;;;;;6.19;95.26;97478.09;5052852;28;20239;-78
2021/01/20 05:31:53;;;;;;;1.53;0.77;;;;;;;6.19;94.09;97480.75;5045244;28;20215;-79
2021/01/20 05:34:27;;;;;;;1.77;0.97;;;;;;;6.33;93.11;97476.41;5052722;28;20258;-78
2021/01/20 05:37:06;;;;;;;1.37;0.80;;;;;;;6.31;92.04;97484.56;5047288;28;20207;-78
2021/01/20 05:39:34;;;;;;;1.63;1.00;;;;;;;6.32;91.85;97488.84;5041705;28;20224;-79
2021/01/20 05:42:02;;;;;;;1.37;0.50;;;;;;;6.32;92.13;97493.31;5049504;28;20204;-79
2021/01/20 05:44:29;;;;;;;2.00;1.13;;;;;;;6.26;92.81;97473.72;5047859;28;20209;-77
2021/01/20 05:46:55;;;;;;;0.63;0.63;;;;;;;6.32;92.12;97480.91;5049474;28;20212;-79
2021/01/20 05:49:23;;;;;;;3.10;1.00;;;;;;;6.29;91.33;97480.47;5040433;28;20225;-77
2021/01/20 05:51:51;;;;;;;1.57;1.00;;;;;;;6.32;90.92;97464.16;5049090;28;20665;-77
2021/01/20 05:54:34;;;;;;;1.10;0.80;;;;;;;6.33;91.14;97464.00;5043539;28;20209;-78
2021/01/20 05:57:15;;;;;;;2.00;1.13;;;;;;;6.19;92.04;97464.84;5051806;28;20263;-78
2021/01/20 05:59:43;;;;;;;1.43;0.90;;;;;;;6.25;91.78;97460.63;5044733;28;20236;-78
2021/01/20 06:02:10;;;;;;;1.90;0.93;;;;;;;6.15;92.36;97462.78;5045229;28;20211;-78
2021/01/20 06:04:38;;;;;;;1.27;0.83;;;;;;;6.38;91.14;97458.13;5058426;28;20311;-78
2021/01/20 06:07:07;;;;;;;1.33;0.63;;;;;;;6.31;91.30;97460.72;5068494;22;20224;-73
2021/01/20 06:09:35;;;;;;;1.43;0.97;;;;;;;6.28;91.40;97466.38;5053890;28;20220;-75
2021/01/20 06:12:04;;;;;;;1.13;0.90;;;;;;;6.32;92.43;97458.88;5055435;28;20668;-76
2021/01/20 06:14:31;;;;;;;2.00;1.07;;;;;;;6.28;90.52;97463.72;5050724;28;20206;-74
2021/01/20 06:17:04;;;;;;;1.10;0.83;;;;;;;6.21;90.84;97464.66;5054177;28;20221;-75
2021/01/20 06:19:31;;;;;;;1.17;0.90;;;;;;;6.43;89.90;97461.03;5048207;28;20199;-73
2021/01/20 06:22:00;;;;;;;1.90;0.97;;;;;;;6.18;92.46;97463.22;5051868;28;20211;-70
2021/01/20 06:24:32;;;;;;;1.87;0.90;;;;;;;6.26;91.43;97457.81;5046218;28;20200;-73
2021/01/20 06:27:05;;;;;;;0.90;0.73;;;;;;;6.26;91.91;97463.13;5038141;28;20282;-73
2021/01/20 06:29:33;;;;;;;1.90;1.20;;;;;;;6.22;95.29;97461.00;5046432;28;20232;-73
2021/01/20 06:32:01;;;;;;;4.23;1.77;;;;;;;6.28;93.60;97466.38;5053262;28;20233;-73
2021/01/20 06:34:28;;;;;;;2.17;1.47;;;;;;;6.17;94.18;97464.22;5038719;28;20192;-73
2021/01/20 06:36:55;;;;;;;2.07;1.30;;;;;;;6.10;95.35;97465.16;5047108;28;20228;-73
2021/01/20 06:39:33;;;;;;;4.00;1.50;;;;;;;6.17;95.75;97464.22;5053314;28;20204;-75
2021/01/20 06:42:01;;;;;;;4.53;1.30;;;;;;;6.15;95.48;97455.63;5044251;28;20213;-72
2021/01/20 06:44:28;;;;;;;2.73;1.70;;;;;;;6.13;95.20;97457.66;5044801;28;20211;-75
2021/01/20 06:47:02;;;;;;;4.50;1.90;;;;;;;6.09;96.60;97456.38;5052083;28;20289;-72
2021/01/20 06:49:30;;;;;;;1.97;1.30;;;;;;;6.16;94.05;97464.41;5034147;28;20232;-75
2021/01/20 06:52:10;;;;;;;2.30;1.50;;;;;;;6.26;92.68;97462.28;5047362;28;20214;-73
2021/01/20 06:54:38;;;;;;;2.53;1.50;;;;;;;6.09;94.59;97453.72;5054201;28;20191;-78
2021/01/20 06:57:30;;;;;;;2.30;1.30;;;;;;;6.14;93.08;97445.25;5052800;28;20232;-78
2021/01/20 07:00:23;;;;;;;3.13;1.23;;;;;;;6.23;91.87;97452.88;5044629;28;20199;-72
2021/01/20 07:03:00;;;;;;;1.03;0.80;;;;;;;6.30;88.98;97455.59;5033181;28;20620;-75
2021/01/20 07:05:38;;;;;;;1.83;0.87;;;;;;;6.37;88.38;97451.19;5049475;28;20201;-76
2021/01/20 07:08:06;;;;;;;1.57;1.00;;;;;;;6.32;88.99;97453.56;5052003;28;20215;-75
2021/01/20 07:11:05;;;;;;;4.17;0.90;;;;;;;6.35;87.92;97454.00;5039468;28;20225;-74
2021/01/20 07:13:34;;;;;;;1.73;0.73;;;;;;;6.42;88.10;97441.66;5053148;28;20200;-76
2021/01/20 07:16:02;;;;;;;2.20;1.10;;;;;;;6.38;88.52;97443.06;5050000;28;20618;-75
2021/01/20 07:18:29;;;;;;;0.90;0.80;;;;;;;6.39;87.32;97441.22;5057494;28;20262;-73
2021/01/20 07:20:55;;;;;;;1.63;0.90;;;;;;;6.39;88.17;97436.72;5051030;28;20252;-73
2021/01/20 07:23:23;;;;;;;2.23;1.10;;;;;;;6.51;87.21;97445.00;5044622;28;20615;-73
2021/01/20 07:25:51;;;;;;;1.40;0.90;;;;;;;6.53;86.86;97441.16;5052503;28;20216;-74
2021/01/20 07:28:19;;;;;;;3.90;0.80;;;;;;;6.46;86.91;97439.47;5056820;28;20260;-77
2021/01/20 07:30:47;;;;;;;2.40;1.30;;;;;;;6.48;86.88;97440.06;5049959;28;20228;-76
2021/01/20 07:33:18;;;;;;;1.13;0.70;;;;;;;6.62;86.17;97437.38;5049440;28;20215;-78
2021/01/20 07:35:45;;;;;;;1.67;0.93;;;;;;;6.63;86.15;97436.38;5044332;28;20335;-74
2021/01/20 07:38:12;;;;;;;1.77;1.13;;;;;;;6.55;86.67;97433.84;5044722;28;20567;-75
2021/01/20 07:40:41;;;;;;;2.87;0.80;;;;;;;6.58;85.07;97432.63;5047093;28;20216;-78
2021/01/20 07:43:08;;;;;;;3.10;0.93;;;;;;;6.59;85.32;97426.31;5043885;28;20212;-75
2021/01/20 07:45:38;;;;;;;2.27;1.10;;;;;;;6.52;89.55;97422.78;5048595;28;20208;-75
2021/01/20 07:48:07;;;;;;;3.03;1.20;;;;;;;6.49;89.01;97424.00;5041662;28;20656;-74
2021/01/20 07:50:42;;;;;;;1.37;1.10;;;;;;;6.57;87.25;97420.41;5053325;28;20693;-81
2021/01/20 07:53:12;;;;;;;1.67;1.10;;;;;;;6.65;86.03;97425.56;5044526;28;20191;-80
2021/01/20 07:55:39;;;;;;;1.30;1.17;;;;;;;6.65;85.78;97422.94;5046269;28;20372;-81
2021/01/20 07:58:06;;;;;;;2.50;0.77;;;;;;;6.68;83.31;97430.47;5051067;28;20232;-74
2021/01/20 08:00:44;;;;;;;3.07;1.40;;;;;;;6.81;84.17;97425.31;5049791;28;20194;-76
2021/01/20 08:03:12;;;;;;;1.30;0.87;;;;;;;6.78;86.60;97417.72;5051026;28;20213;-74
2021/01/20 08:05:42;;;;;;;1.43;0.90;;;;;;;6.83;83.72;97425.91;5052043;28;20567;-74
2021/01/20 08:08:10;;;;;;;1.63;1.00;;;;;;;6.83;82.87;97431.22;5052671;28;20205;-73
2021/01/20 08:10:37;;;;;;;1.10;0.97;;;;;;;6.66;84.29;97428.00;5050615;28;20228;-76
2021/01/20 08:13:04;;;;;;;2.30;1.00;;;;;;;6.90;81.03;97430.25;5048261;28;20213;-74
2021/01/20 08:15:33;;;;;;;3.23;1.10;;;;;;;6.90;81.38;97429.47;5043427;28;20664;-77
2021/01/20 08:18:00;;;;;;;2.30;0.80;;;;;;;7.06;80.27;97432.63;5048975;28;20201;-79
2021/01/20 08:20:33;;;;;;;1.17;0.80;;;;;;;7.19;79.08;97423.94;5052715;28;20246;-77
2021/01/20 08:23:00;;;;;;;1.93;1.03;;;;;;;6.86;81.07;97422.91;5051548;28;20300;-74
2021/01/20 08:25:27;;;;;;;1.10;0.90;;;;;;;7.09;78.92;97424.31;5051853;28;20762;-74
2021/01/20 08:27:54;;;;;;;1.50;1.00;;;;;;;7.08;78.48;97433.28;5037035;28;20225;-76
2021/01/20 08:30:32;;;;;;;2.73;1.30;;;;;;;6.89;81.49;97422.50;5043094;28;20236;-75
2021/01/20 08:32:59;;;;;;;1.40;0.80;;;;;;;7.06;79.10;97429.19;5050012;28;20210;-75
2021/01/20 08:35:28;;;;;;;2.70;1.40;;;;;;;7.08;79.84;97427.97;5051773;28;20653;-77
2021/01/20 08:37:56;;;;;;;1.73;1.23;;;;;;;7.76;91.69;97405.91;5050823;28;20224;-74
2021/01/20 08:40:23;;;;;;;3.23;1.30;;;;;;;7.19;79.87;97422.13;5050725;28;20194;-71
2021/01/20 08:42:50;;;;;;;1.97;1.10;;;;;;;7.16;79.21;97421.69;5044051;28;20208;-72
2021/01/20 08:45:26;;;;;;;4.40;1.10;;;;;;;6.85;82.33;97416.75;5041991;28;20683;-73
2021/01/20 08:47:55;;;;;;;2.67;1.30;;;;;;;6.78;83.04;97407.94;5049803;28;20229;-74
2021/01/20 08:50:37;;;;;;;2.53;1.10;;;;;;;6.98;82.90;97400.97;5042908;28;20577;-74
2021/01/20 08:53:05;;;;;;;2.40;1.17;;;;;;;7.07;81.16;97413.06;5048040;28;20203;-73
2021/01/20 08:55:34;;;;;;;3.47;1.07;;;;;;;6.70;84.23;97397.47;5049818;28;20685;-74
2021/01/20 08:58:20;;;;;;;1.83;1.10;;;;;;;6.84;83.65;97401.03;5045606;28;20677;-74
2021/01/20 09:00:48;;;;;;;2.00;1.07;;;;;;;6.95;85.78;97395.22;5043297;28;20220;-73
2021/01/20 09:03:16;;;;;;;2.37;1.20;;;;;;;7.26;83.21;97393.78;5041818;28;20209;-74
2021/01/20 09:05:43;;;;;;;2.03;1.03;;;;;;;6.86;81.94;97399.84;5051014;28;20244;-77
2021/01/20 09:08:11;;;;;;;1.60;1.03;;;;;;;7.04;82.23;97386.91;5050301;28;20856;-75
2021/01/20 09:10:38;;;;;;;1.77;1.03;;;;;;;7.05;81.83;97382.44;5050900;28;20302;-76
2021/01/20 09:13:05;;;;;;;1.70;1.00;;;;;;;7.35;80.42;97378.53;5046961;28;20228;-76
2021/01/20 09:15:32;;;;;;;2.03;1.20;;;;;;;7.48;79.85;97389.22;5049503;28;20201;-75
2021/01/20 09:17:59;;;;;;;6.13;4.20;;;;;;;7.48;79.74;97376.78;5049190;28;20232;-76
2021/01/20 09:20:26;;;;;;;1.47;0.87;;;;;;;7.52;78.73;97385.97;5048863;28;20198;-75
2021/01/20 09:22:53;;;;;;;1.40;1.00;;;;;;;7.67;77.43;97370.72;5046793;28;20216;-74
2021/01/20 09:25:20;;;;;;;1.83;1.17;;;;;;;7.26;78.55;97377.06;5048188;28;20213;-74
2021/01/20 09:27:47;;;;;;;1.80;1.00;;;;;;;7.56;79.35;97373.94;5045483;28;20322;-74
2021/01/20 09:30:14;;;;;;;1.63;1.00;;;;;;;7.49;78.26;97381.06;5048307;28;20226;-74
2021/01/20 09:32:41;;;;;;;2.30;1.00;;;;;;;7.59;78.74;97378.88;5049471;28;20681;-79
2021/01/20 09:35:10;;;;;;;2.33;1.07;;;;;;;7.65;80.05;97369.28;5050196;28;20293;-77
2021/01/20 09:37:37;;;;;;;2.10;1.20;;;;;;;7.63;77.36;97369.50;5055912;28;20225;-74
2021/01/20 09:40:06;;;;;;;3.00;1.10;;;;;;;7.48;77.58;97371.47;5055573;28;20209;-74
2021/01/20 09:42:34;;;;;;;2.57;1.20;;;;;;;7.59;74.93;97376.22;5052133;28;20201;-74
2021/01/20 09:45:01;;;;;;;2.43;1.17;;;;;;;7.71;76.78;97369.31;5052223;28;20213;-75
2021/01/20 09:47:29;;;;;;;1.57;1.00;;;;;;;7.87;76.64;97366.28;5051317;28;20222;-74
2021/01/20 09:49:56;;;;;;;1.97;1.00;;;;;;;8.03;76.05;97365.97;5044847;28;20210;-78
2021/01/20 09:52:25;;;;;;;2.23;1.00;;;;;;;7.75;76.14;97365.25;5035616;28;20206;-76
2021/01/20 09:54:53;;;;;;;1.73;1.03;;;;;;;7.91;78.13;97361.44;5044691;28;20226;-75
2021/01/20 09:57:20;;;;;;;5.07;1.20;;;;;;;8.24;74.32;97365.84;5054392;28;20218;-76
2021/01/20 09:59:48;;;;;;;2.17;1.10;;;;;;;7.90;75.03;97360.59;5046189;28;20276;-73
2021/01/20 10:02:15;;;;;;;2.30;1.10;;;;;;;7.92;73.59;97363.06;5055682;28;20202;-77
2021/01/20 10:04:42;;;;;;;1.67;1.10;;;;;;;7.76;77.80;97350.94;5049597;28;20650;-78
2021/01/20 10:07:09;;;;;;;2.20;1.30;;;;;;;7.78;76.64;97348.09;5055419;28;20226;-79
2021/01/20 10:09:37;;;;;;;2.73;1.10;;;;;;;8.13;73.28;97353.06;5058643;28;20319;-76
2021/01/20 10:12:05;;;;;;;4.10;1.40;;;;;;;7.67;77.17;97346.81;5057082;28;20259;-76
2021/01/20 10:14:32;;;;;;;4.50;1.77;;;;;;;8.31;73.92;97347.22;5045457;28;20204;-74
2021/01/20 10:17:00;;;;;;;2.63;1.00;;;;;;;8.33;72.86;97338.00;5056942;28;20218;-79
2021/01/20 10:19:27;;;;;;;1.00;0.90;;;;;;;8.12;74.87;97324.88;5052573;28;20241;-77
2021/01/20 10:21:54;;;;;;;2.00;1.20;;;;;;;8.08;73.14;97314.88;5048424;28;20696;-76
2021/01/20 10:24:21;;;;;;;2.63;1.40;;;;;;;7.68;75.97;97311.31;5051402;28;20719;-72
2021/01/20 10:26:48;;;;;;;2.93;1.20;;;;;;;8.34;72.38;97322.91;5053524;28;20232;-79
2021/01/20 10:29:15;;;;;;;1.80;1.30;;;;;;;7.88;74.75;97320.16;5039162;28;20289;-76
2021/01/20 10:31:42;;;;;;;16.93;7.63;;;;;;;8.36;75.61;97319.00;5054338;28;20577;-75
2021/01/20 10:34:11;;;;;;;2.07;1.50;;;;;;;8.60;70.67;97321.06;5045133;28;20294;-74
2021/01/20 10:36:39;;;;;;;4.20;1.80;;;;;;;8.68;70.61;97318.19;5047128;28;20240;-73
2021/01/20 10:39:06;;;;;;;3.57;1.43;;;;;;;8.54;71.07;97313.09;5052730;28;20215;-73
2021/01/20 10:41:33;;;;;;;3.10;1.73;;;;;;;8.73;69.07;97314.94;5044718;28;20723;-73
2021/01/20 10:44:00;;;;;;;4.07;2.07;;;;;;;9.01;68.59;97318.16;5053043;28;20825;-72
2021/01/20 10:46:27;;;;;;;5.87;2.90;;;;;;;8.83;72.35;97304.69;5053305;28;20312;-73
2021/01/20 10:48:55;;;;;;;3.73;1.40;;;;;;;8.45;71.13;97301.84;5054433;28;20225;-72
2021/01/20 10:51:24;;;;;;;4.70;2.57;;;;;;;8.40;74.33;97298.16;5053866;28;20225;-74
2021/01/20 10:53:51;;;;;;;2.50;1.60;;;;;;;7.96;74.61;97290.72;5053529;28;20267;-73
2021/01/20 10:56:18;;;;;;;2.07;1.33;;;;;;;8.28;74.37;97287.31;5051178;28;20227;-80
2021/01/20 10:58:45;;;;;;;3.47;1.30;;;;;;;8.52;71.62;97292.00;5056105;28;20699;-76
2021/01/20 11:01:12;;;;;;;3.30;1.50;;;;;;;8.41;72.54;97291.81;5053175;28;20205;-73
2021/01/20 11:03:39;;;;;;;6.50;2.57;;;;;;;8.57;72.28;97283.44;5052984;28;20210;-73
2021/01/20 11:06:06;;;;;;;2.37;1.20;;;;;;;7.93;72.00;97277.88;5043365;28;20235;-73
2021/01/20 11:08:34;;;;;;;1.90;1.30;;;;;;;8.03;73.37;97270.31;5053886;28;20755;-74
2021/01/20 11:11:01;;;;;;;2.07;1.20;;;;;;;8.57;71.07;97262.97;5048289;28;20629;-75
2021/01/20 11:13:29;;;;;;;3.83;1.90;;;;;;;8.75;67.78;97273.78;5044891;28;20202;-74
2021/01/20 11:15:56;;;;;;;1.93;1.20;;;;;;;8.30;71.06;97266.66;5050396;28;20213;-78
2021/01/20 11:18:23;;;;;;;2.57;1.30;;;;;;;8.12;74.36;97247.81;5058134;28;20262;-76
2021/01/20 11:20:50;;;;;;;3.57;1.57;;;;;;;8.39;71.05;97252.16;5045054;28;20197;-77
2021/01/20 11:23:17;;;;;;;2.23;1.33;;;;;;;7.91;73.24;97245.34;5058848;28;20229;-73
2021/01/20 11:25:46;;;;;;;1.80;1.23;;;;;;;8.03;73.50;97241.09;5054104;28;20206;-72
2021/01/20 11:28:14;;;;;;;4.53;1.60;;;;;;;8.95;68.79;97244.47;5053522;28;20562;-74
2021/01/20 11:30:41;;;;;;;3.43;1.17;;;;;;;8.46;69.13;97244.16;5053122;28;20312;-75
2021/01/20 11:33:08;;;;;;;3.23;1.37;;;;;;;8.49;68.67;97244.59;5056632;28;20212;-80
2021/01/20 11:35:35;;;;;;;3.00;1.43;;;;;;;7.92;73.49;97231.03;5047802;28;20249;-77
2021/01/20 11:38:02;;;;;;;3.33;1.57;;;;;;;8.48;70.95;97231.50;5047181;28;20217;-78
2021/01/20 11:40:30;;;;;;;2.50;1.53;;;;;;;8.29;73.07;97227.00;5050021;28;20193;-71
2021/01/20 11:42:59;;;;;;;2.03;1.50;;;;;;;8.23;72.12;97222.50;5052911;28;20209;-72
2021/01/20 11:45:27;;;;;;;2.70;1.60;;;;;;;8.62;69.65;97233.91;5049891;28;20202;-72